Time;durP1;ratioP1;P1;durP2;ratioP2;P2;SDS_P1;SDS_P2;PMS_P1;PMS_P2;Temp;Humidity;BMP_temperature;BMP_pressure;BME280_temperature;BME280_humidity;BME280_pressure;Samples;Min_cycle;Max_cycle;Signal;HPM_P1;HPM_P2
2021/12/14 00:00:16;;;;;;;5.60;2.42;;;16.40;53.00;15.50;102214.00;;;;5019818;28;20040;-67
2021/12/14 00:03:02;;;;;;;4.32;2.42;;;16.40;52.90;15.50;102208.00;;;;5022309;28;20544;-67
2021/12/14 00:05:49;;;;;;;7.45;2.63;;;16.40;52.90;15.50;102190.00;;;;5023557;28;20044;-67
2021/12/14 00:08:47;;;;;;;3.38;2.53;;;16.40;52.90;15.50;102195.00;;;;5017953;28;20052;-67
2021/12/14 00:17:53;;;;;;;3.00;2.28;;;16.40;52.80;15.50;102213.00;;;;5013815;28;20042;-67
2021/12/14 00:20:48;;;;;;;3.90;2.80;;;16.40;52.80;15.50;102220.00;;;;5016099;28;20047;-67
2021/12/14 00:24:09;;;;;;;2.85;2.35;;;16.40;52.80;15.50;102217.00;;;;5015343;28;20041;-67
2021/12/14 00:27:01;;;;;;;3.38;2.35;;;16.40;52.80;15.50;102216.00;;;;5017446;28;20488;-67
2021/12/14 00:29:53;;;;;;;5.78;2.42;;;16.40;52.70;15.50;102219.00;;;;5019805;28;20049;-67
2021/12/14 00:32:39;;;;;;;4.40;2.42;;;16.40;52.70;15.50;102220.00;;;;5019119;28;20384;-67
2021/12/14 00:35:25;;;;;;;4.28;2.13;;;16.40;52.70;15.50;102216.00;;;;5011066;28;20677;-67
2021/12/14 00:38:14;;;;;;;5.10;2.47;;;16.40;52.70;15.50;102216.00;;;;5020318;28;20525;-67
2021/12/14 00:41:21;;;;;;;2.72;2.13;;;16.40;52.70;15.50;102207.00;;;;5023049;28;20033;-67
2021/12/14 00:44:08;;;;;;;3.83;2.33;;;16.40;52.60;15.50;102199.00;;;;5007349;28;20030;-67
2021/12/14 00:46:54;;;;;;;4.80;2.40;;;16.40;52.60;15.50;102191.00;;;;5017754;28;20065;-67
2021/12/14 00:49:41;;;;;;;4.07;2.38;;;16.40;52.60;15.50;102192.00;;;;5013150;28;20069;-67
2021/12/14 00:52:27;;;;;;;3.28;2.20;;;16.40;52.60;15.50;102191.00;;;;5020509;28;20471;-67
2021/12/14 00:55:17;;;;;;;4.55;2.28;;;16.40;52.60;15.50;102194.00;;;;5016506;28;20224;-67
2021/12/14 00:58:04;;;;;;;2.83;1.98;;;16.40;53.20;15.50;102198.00;;;;5009381;28;20049;-67
2021/12/14 01:01:18;;;;;;;3.13;2.00;;;16.40;52.50;15.50;102209.00;;;;5031827;28;20037;-67
2021/12/14 01:04:08;;;;;;;4.45;2.25;;;16.40;52.50;15.50;102203.00;;;;5016083;28;20903;-67
2021/12/14 01:06:54;;;;;;;2.42;1.70;;;16.40;52.50;15.50;102212.00;;;;5006770;28;20041;-67
2021/12/14 01:09:44;;;;;;;4.28;2.30;;;16.40;52.40;15.50;102212.00;;;;5008971;28;20041;-67
2021/12/14 01:12:40;;;;;;;7.68;3.00;;;16.40;52.40;15.50;102213.00;;;;5001540;28;20380;-67
2021/12/14 01:27:47;;;;;;;2.97;2.20;;;16.40;52.30;15.40;102205.00;;;;5021127;28;20272;-67
2021/12/14 01:31:10;;;;;;;4.68;2.17;;;16.40;52.30;15.40;102217.00;;;;5012869;28;20037;-67
2021/12/14 01:34:11;;;;;;;2.90;2.30;;;16.40;52.40;15.40;102226.00;;;;5025121;28;20142;-67
2021/12/14 01:37:05;;;;;;;2.90;2.17;;;16.40;52.40;15.40;102214.00;;;;5009642;28;20046;-67
2021/12/14 01:42:41;;;;;;;5.80;2.50;;;16.40;52.40;15.40;102210.00;;;;5033585;28;20041;-67
2021/12/14 01:45:28;;;;;;;4.28;2.40;;;16.40;52.40;15.40;102219.00;;;;5020256;28;20050;-67
2021/12/14 01:48:14;;;;;;;3.42;2.22;;;16.40;52.40;15.40;102213.00;;;;5016330;28;20396;-67
2021/12/14 01:51:06;;;;;;;4.25;2.17;;;16.40;52.40;15.40;102215.00;;;;5012304;28;20399;-67
2021/12/14 01:53:52;;;;;;;5.20;2.50;;;16.30;52.30;15.50;102199.00;;;;5001817;28;20403;-67
2021/12/14 01:56:39;;;;;;;3.80;2.33;;;16.40;52.40;15.40;102187.00;;;;5010249;28;20557;-67
2021/12/14 01:59:34;;;;;;;3.80;2.85;;;16.40;52.30;15.50;102187.00;;;;5017732;28;20541;-67
2021/12/14 02:02:47;;;;;;;3.30;2.45;;;16.30;52.30;15.50;102190.00;;;;5035290;28;20406;-67
2021/12/14 02:05:38;;;;;;;4.13;2.42;;;16.40;52.30;15.40;102174.00;;;;5025518;28;20263;-67
2021/12/14 02:08:28;;;;;;;4.38;2.72;;;16.40;52.30;15.50;102160.00;;;;5001745;28;20095;-67
2021/12/14 02:11:14;;;;;;;5.03;2.97;;;16.40;52.30;15.50;102153.00;;;;5024038;28;20095;-67
2021/12/14 02:14:01;;;;;;;5.45;2.80;;;16.40;52.30;15.40;102136.00;;;;5023627;28;20042;-67
2021/12/14 02:16:56;;;;;;;3.83;2.63;;;16.40;52.30;15.50;102141.00;;;;5024776;28;20085;-67
2021/12/14 02:19:42;;;;;;;4.20;3.03;;;16.40;52.20;15.40;102131.00;;;;5022103;28;20068;-67
2021/12/14 02:22:29;;;;;;;4.40;2.92;;;16.40;52.20;15.40;102114.00;;;;5008553;28;20061;-67
2021/12/14 02:25:15;;;;;;;4.60;2.95;;;16.40;52.20;15.40;102111.00;;;;5017970;28;20084;-67
2021/12/14 02:28:05;;;;;;;3.78;2.55;;;16.40;52.20;15.40;102112.00;;;;5007329;28;20104;-67
2021/12/14 02:30:54;;;;;;;3.47;2.47;;;16.40;52.20;15.40;102117.00;;;;5007139;28;20045;-67
2021/12/14 02:33:41;;;;;;;4.00;2.65;;;16.40;52.20;15.40;102111.00;;;;5022441;28;20056;-67
2021/12/14 02:36:30;;;;;;;7.13;3.50;;;16.40;52.30;15.40;102114.00;;;;5003684;28;20499;-67
2021/12/14 02:39:47;;;;;;;4.95;2.75;;;16.30;52.10;15.40;102127.00;;;;5024698;28;20037;-67
2021/12/14 02:42:32;;;;;;;4.50;3.03;;;16.30;52.10;15.40;102138.00;;;;5013741;28;20030;-67
2021/12/14 02:45:22;;;;;;;3.65;3.05;;;16.30;52.10;15.40;102169.00;;;;5021403;28;20463;-67
2021/12/14 02:48:09;;;;;;;7.22;3.35;;;16.30;52.10;15.40;102151.00;;;;5016802;28;20037;-67
2021/12/14 02:50:55;;;;;;;4.38;3.10;;;16.30;52.10;15.40;102153.00;;;;5020213;28;20067;-67
2021/12/14 02:53:41;;;;;;;5.65;2.70;;;16.30;52.10;15.40;102152.00;;;;5026007;28;20556;-67
2021/12/14 02:56:30;;;;;;;4.50;3.05;;;16.30;52.10;15.40;102140.00;;;;5023019;28;20072;-66
2021/12/14 02:59:30;;;;;;;4.43;3.47;;;16.30;52.10;15.40;102136.00;;;;5020215;28;20044;-67
2021/12/14 03:02:22;;;;;;;4.78;3.08;;;16.30;52.10;15.40;102147.00;;;;5021835;28;20128;-67
2021/12/14 03:05:26;;;;;;;5.20;3.10;;;16.30;52.10;15.40;102147.00;;;;5025178;28;20037;-67
2021/12/14 03:08:23;;;;;;;3.47;2.65;;;16.30;52.10;15.40;102142.00;;;;5020645;28;20042;-67
2021/12/14 03:11:12;;;;;;;3.20;2.90;;;16.40;52.20;15.40;102147.00;;;;5024162;28;20475;-67
2021/12/14 03:13:58;;;;;;;4.45;2.80;;;16.30;52.10;15.40;102158.00;;;;5020684;28;20157;-67
2021/12/14 03:16:45;;;;;;;4.82;2.67;;;16.30;52.10;15.40;102152.00;;;;5021731;28;20373;-67
2021/12/14 03:19:31;;;;;;;3.83;2.60;;;16.30;52.10;15.40;102151.00;;;;5020564;28;20045;-67
2021/12/14 03:22:45;;;;;;;2.95;2.65;;;16.30;52.10;15.40;102151.00;;;;5013602;28;20480;-67
2021/12/14 03:25:33;;;;;;;3.60;2.70;;;16.30;52.10;15.40;102158.00;;;;5018757;28;20175;-67
2021/12/14 03:28:20;;;;;;;;;;;16.30;52.10;15.40;102161.00;;;;5036510;28;20092;-67
2021/12/14 03:31:23;;;;;;;3.15;2.60;;;16.30;52.20;15.40;102155.00;;;;5016218;28;20210;-67
2021/12/14 03:34:31;;;;;;;5.07;2.72;;;16.30;52.00;15.40;102158.00;;;;5022643;28;20073;-67
2021/12/14 03:37:23;;;;;;;3.47;3.00;;;16.30;52.00;15.40;102156.00;;;;5014839;28;20129;-67
2021/12/14 03:40:10;;;;;;;4.07;2.92;;;16.30;52.00;15.40;102156.00;;;;5020460;28;20069;-67
2021/12/14 03:42:56;;;;;;;5.32;2.92;;;16.30;52.10;15.40;102154.00;;;;5012376;28;20048;-67
2021/12/14 03:45:42;;;;;;;5.07;2.78;;;16.30;52.10;15.40;102152.00;;;;5012536;28;20312;-67
2021/12/14 03:48:29;;;;;;;3.50;2.72;;;16.30;52.10;15.40;102156.00;;;;5014979;28;20107;-67
2021/12/14 03:51:20;;;;;;;4.75;3.20;;;16.30;52.10;15.40;102139.00;;;;5021019;28;20441;-67
2021/12/14 03:54:06;;;;;;;3.65;2.47;;;16.30;52.10;15.40;102131.00;;;;5017090;28;20117;-67
2021/12/14 03:56:53;;;;;;;5.00;2.92;;;16.30;52.10;15.40;102118.00;;;;5013433;28;20038;-67
2021/12/14 03:59:39;;;;;;;3.85;3.17;;;16.30;52.10;15.40;102096.00;;;;5022358;28;20746;-67
2021/12/14 04:02:25;;;;;;;3.45;2.88;;;16.30;52.10;15.40;102111.00;;;;5015825;28;20045;-67
2021/12/14 04:05:12;;;;;;;4.07;3.00;;;16.30;52.10;15.40;102121.00;;;;5031056;28;20042;-67
2021/12/14 04:07:58;;;;;;;3.75;3.25;;;16.30;52.10;15.40;102122.00;;;;5005641;28;20049;-67
2021/12/14 04:10:46;;;;;;;4.07;3.25;;;16.30;52.10;15.40;102134.00;;;;5010038;28;20112;-67
2021/12/14 04:13:39;;;;;;;4.25;3.28;;;16.30;52.10;15.40;102122.00;;;;5017726;28;20080;-67
2021/12/14 04:16:25;;;;;;;4.03;3.13;;;16.30;52.10;15.40;102135.00;;;;5009406;28;20041;-67
2021/12/14 04:19:14;;;;;;;3.60;3.25;;;16.30;52.10;15.40;102136.00;;;;5021222;28;20042;-67
2021/12/14 04:22:11;;;;;;;4.70;3.33;;;16.30;52.20;15.40;102130.00;;;;5005789;28;20092;-67
2021/12/14 04:25:01;;;;;;;5.03;3.60;;;16.30;52.20;15.40;102130.00;;;;5019231;28;20411;-67
2021/12/14 04:27:47;;;;;;;3.65;3.30;;;16.30;52.20;15.40;102127.00;;;;5008314;28;20288;-67
2021/12/14 04:30:34;;;;;;;4.40;3.50;;;16.30;52.20;15.40;102122.00;;;;5010959;28;20128;-67
2021/12/14 04:33:41;;;;;;;3.80;3.28;;;16.30;52.20;15.40;102130.00;;;;5019770;28;20107;-67
2021/12/14 04:36:29;;;;;;;4.75;3.60;;;16.30;52.20;15.40;102132.00;;;;5018125;28;20119;-67
2021/12/14 04:51:59;;;;;;;5.18;4.00;;;16.30;52.30;15.40;102132.00;;;;5021367;28;20065;-67
2021/12/14 04:55:01;;;;;;;4.55;3.28;;;16.30;52.30;15.40;102137.00;;;;5019854;28;20636;-67
2021/12/14 04:57:47;;;;;;;5.47;4.22;;;16.30;52.30;15.40;102134.00;;;;5017534;28;20262;-67
2021/12/14 05:00:52;;;;;;;4.50;3.60;;;16.30;52.30;15.40;102129.00;;;;5022848;28;20042;-67
2021/12/14 05:03:47;;;;;;;4.55;3.45;;;16.30;52.30;15.40;102133.00;;;;5012710;28;20247;-67
2021/12/14 05:06:47;;;;;;;6.18;4.13;;;16.30;52.30;15.40;102121.00;;;;5021467;28;20078;-67
2021/12/14 05:09:36;;;;;;;5.38;4.28;;;16.30;52.30;15.40;102122.00;;;;5022446;28;20042;-67
2021/12/14 05:12:30;;;;;;;5.70;4.18;;;16.30;52.30;15.40;102129.00;;;;5000353;28;20046;-67
2021/12/14 05:15:16;;;;;;;6.70;4.38;;;16.30;52.30;15.40;102128.00;;;;5016326;28;20053;-67
2021/12/14 05:18:10;;;;;;;6.00;4.30;;;16.30;52.30;15.40;102116.00;;;;5017410;28;20487;-67
2021/12/14 05:20:58;;;;;;;5.30;3.95;;;16.30;52.30;15.40;102130.00;;;;5009471;28;20037;-67
2021/12/14 05:23:44;;;;;;;5.97;4.35;;;16.40;52.40;15.40;102118.00;;;;4978639;28;20037;-67
2021/12/14 05:26:31;;;;;;;6.78;4.70;;;16.40;52.40;15.50;102112.00;;;;5018367;28;20057;-67
2021/12/14 05:29:21;;;;;;;6.55;3.90;;;16.40;52.40;15.40;102117.00;;;;5019961;28;20107;-67
2021/12/14 05:32:08;;;;;;;5.60;4.20;;;16.40;52.40;15.40;102113.00;;;;5029053;28;20037;-67
2021/12/14 05:34:54;;;;;;;6.15;4.45;;;16.40;52.40;15.40;102109.00;;;;5022657;28;20040;-67
2021/12/14 05:37:48;;;;;;;5.53;4.80;;;16.40;52.30;15.50;102125.00;;;;5016709;28;20236;-67
2021/12/14 05:43:24;;;;;;;5.60;4.03;;;16.40;52.30;15.40;102120.00;;;;5015645;28;20041;-67
2021/12/14 05:46:11;;;;;;;6.22;4.95;;;16.40;52.40;15.40;102116.00;;;;5019981;28;20048;-67
2021/12/14 05:49:02;;;;;;;5.63;4.43;;;16.40;52.40;15.50;102126.00;;;;5025937;28;20128;-67
2021/12/14 05:51:49;;;;;;;4.90;4.40;;;16.40;52.40;15.40;102125.00;;;;5023061;28;20048;-67
2021/12/14 05:54:35;;;;;;;6.53;4.97;;;16.40;52.40;15.50;102122.00;;;;5020487;28;20038;-67
2021/12/14 05:57:25;;;;;;;5.43;4.88;;;16.40;52.40;15.40;102116.00;;;;5027214;28;20484;-67
2021/12/14 06:00:13;;;;;;;6.20;4.78;;;16.40;52.40;15.40;102118.00;;;;5033242;28;20071;-67
2021/12/14 06:02:59;;;;;;;6.82;5.00;;;16.40;52.40;15.50;102120.00;;;;5006132;28;20030;-67
2021/12/14 06:05:46;;;;;;;7.88;5.38;;;16.40;52.40;15.40;102133.00;;;;5021162;28;20103;-67
2021/12/14 06:08:34;;;;;;;6.25;5.18;;;16.40;52.40;15.50;102131.00;;;;5018658;28;20041;-67
2021/12/14 06:11:25;;;;;;;5.82;5.03;;;16.40;52.40;15.40;102125.00;;;;5004467;28;20515;-67
2021/12/14 06:14:18;;;;;;;8.15;5.53;;;16.40;52.40;15.50;102128.00;;;;5021036;28;20079;-67
2021/12/14 06:17:05;;;;;;;5.90;4.93;;;16.40;52.50;15.50;102145.00;;;;5025425;28;20045;-67
2021/12/14 06:19:54;;;;;;;6.15;5.10;;;16.40;52.40;15.50;102143.00;;;;5021311;28;20042;-67
2021/12/14 06:22:41;;;;;;;5.75;5.00;;;16.40;52.40;15.50;102150.00;;;;5020729;28;20042;-67
2021/12/14 06:25:28;;;;;;;5.95;5.00;;;16.40;52.40;15.50;102150.00;;;;5012163;28;20137;-67
2021/12/14 06:28:25;;;;;;;5.80;4.97;;;16.40;52.40;15.50;102152.00;;;;5022558;28;20411;-67
2021/12/14 06:31:12;;;;;;;6.13;5.10;;;16.40;52.40;15.50;102148.00;;;;5012763;28;20042;-66
2021/12/14 06:34:27;;;;;;;5.35;4.85;;;16.40;52.50;15.50;102140.00;;;;5021804;28;20040;-67
2021/12/14 06:37:41;;;;;;;7.32;5.20;;;16.40;52.50;15.50;102155.00;;;;5005091;28;20109;-67
2021/12/14 06:40:42;;;;;;;5.47;4.95;;;16.40;52.40;15.50;102145.00;;;;5017253;28;20036;-67
2021/12/14 06:43:51;;;;;;;6.72;5.30;;;16.40;52.40;15.50;102153.00;;;;5030485;28;20183;-67
2021/12/14 06:46:39;;;;;;;6.05;4.90;;;16.40;52.40;15.50;102161.00;;;;5017586;28;20319;-67
2021/12/14 06:49:25;;;;;;;6.50;5.20;;;16.40;52.40;15.50;102166.00;;;;5023153;28;20053;-67
2021/12/14 06:52:13;;;;;;;7.75;5.68;;;16.40;52.40;15.50;102174.00;;;;5022204;28;20065;-67
2021/12/14 06:55:00;;;;;;;5.93;5.10;;;16.40;52.40;15.50;102177.00;;;;5022922;28;20045;-67
2021/12/14 06:57:46;;;;;;;7.00;5.05;;;16.40;52.40;15.50;102182.00;;;;5012322;28;20042;-66
2021/12/14 07:00:32;;;;;;;5.55;5.05;;;16.40;52.40;15.50;102188.00;;;;5014320;28;20043;-67
2021/12/14 07:03:19;;;;;;;5.72;4.65;;;16.40;52.40;15.50;102187.00;;;;5012306;28;20121;-67
2021/12/14 07:06:05;;;;;;;5.97;5.25;;;16.40;52.40;15.50;102188.00;;;;5007842;28;20057;-67
2021/12/14 07:08:52;;;;;;;6.43;4.95;;;16.40;52.40;15.50;102196.00;;;;5002756;28;20046;-67
2021/12/14 07:11:42;;;;;;;6.38;5.30;;;16.40;52.40;15.50;102196.00;;;;5021340;28;20128;-66
2021/12/14 07:14:28;;;;;;;5.22;4.63;;;16.40;52.40;15.50;102195.00;;;;5032015;28;20050;-67
2021/12/14 07:17:28;;;;;;;5.53;4.80;;;16.40;52.40;15.50;102197.00;;;;5017987;28;20046;-67
2021/12/14 07:20:18;;;;;;;6.15;5.07;;;16.40;52.50;15.50;102198.00;;;;5012946;28;20439;-66
2021/12/14 07:23:28;;;;;;;6.50;5.53;;;16.40;52.40;15.50;102191.00;;;;5021062;28;20037;-66
2021/12/14 07:26:15;;;;;;;5.93;5.10;;;16.40;52.40;15.50;102198.00;;;;5008879;28;20625;-66
2021/12/14 07:29:01;;;;;;;6.25;5.55;;;16.40;52.40;15.50;102218.00;;;;5003176;28;20049;-66
2021/12/14 07:31:47;;;;;;;5.75;5.18;;;16.40;52.40;15.50;102212.00;;;;4995468;28;20156;-66
2021/12/14 07:34:33;;;;;;;6.38;5.78;;;16.40;52.40;15.50;102208.00;;;;5016947;28;20042;-66
2021/12/14 07:37:32;;;;;;;6.38;5.63;;;16.40;52.40;15.50;102205.00;;;;5027596;28;20037;-67
2021/12/14 07:40:19;;;;;;;6.85;6.10;;;16.40;52.40;15.50;102203.00;;;;5002753;28;20475;-67
2021/12/14 07:43:20;;;;;;;7.15;5.43;;;16.40;52.40;15.50;102204.00;;;;5026178;28;20045;-67
2021/12/14 07:46:18;;;;;;;7.32;6.00;;;16.40;52.40;15.50;102209.00;;;;5011343;28;20048;-67
2021/12/14 07:49:25;;;;;;;6.40;5.70;;;16.40;52.40;15.50;102219.00;;;;5023143;28;20048;-67
2021/12/14 07:52:18;;;;;;;7.15;6.32;;;16.40;52.50;15.50;102231.00;;;;5017379;28;20045;-67
2021/12/14 07:55:25;;;;;;;6.45;5.80;;;16.40;52.50;15.50;102241.00;;;;5030930;28;20077;-67
2021/12/14 07:58:12;;;;;;;7.10;6.40;;;16.40;53.30;15.50;102242.00;;;;5013645;28;20045;-67
2021/12/14 08:00:58;;;;;;;10.50;5.70;;;16.40;52.40;15.50;102239.00;;;;5034450;28;20070;-67
2021/12/14 08:03:44;;;;;;;7.53;6.45;;;16.40;52.50;15.50;102238.00;;;;5020580;28;20037;-67
2021/12/14 08:06:54;;;;;;;7.45;6.65;;;16.40;52.50;15.50;102233.00;;;;5017195;28;20091;-66
2021/12/14 08:09:50;;;;;;;8.30;7.07;;;16.40;52.50;15.50;102222.00;;;;5006493;28;20487;-67
2021/12/14 08:13:04;;;;;;;8.48;6.63;;;16.40;52.50;15.50;102223.00;;;;5007289;28;20057;-67
2021/12/14 08:15:53;;;;;;;10.52;6.50;;;16.40;52.50;15.50;102217.00;;;;5023940;28;20249;-67
2021/12/14 08:18:39;;;;;;;7.38;6.40;;;16.40;52.50;15.40;102226.00;;;;5016210;28;20034;-67
2021/12/14 08:21:26;;;;;;;6.95;6.25;;;16.40;52.50;15.50;102223.00;;;;5006422;28;20045;-67
2021/12/14 08:24:14;;;;;;;8.05;6.90;;;16.40;52.50;15.50;102231.00;;;;5017372;28;20072;-67
2021/12/14 08:27:01;;;;;;;7.53;6.72;;;16.40;52.50;15.50;102231.00;;;;5006911;28;20038;-67
2021/12/14 08:29:55;;;;;;;6.53;5.90;;;16.40;52.50;15.50;102237.00;;;;5003155;28;20030;-67
2021/12/14 08:32:41;;;;;;;7.05;6.28;;;16.40;52.60;15.50;102237.00;;;;5020276;28;20111;-67
2021/12/14 08:35:27;;;;;;;9.90;7.00;;;16.40;52.50;15.50;102240.00;;;;5013486;28;20476;-67
2021/12/14 08:38:15;;;;;;;9.57;7.15;;;16.40;52.60;15.50;102248.00;;;;5019402;28;20069;-67
2021/12/14 08:41:13;;;;;;;;;;;16.40;52.60;15.40;102245.00;;;;5034739;28;20038;-67
2021/12/14 08:44:12;;;;;;;7.55;6.55;;;16.40;52.60;15.40;102246.00;;;;5018806;28;20430;-67
2021/12/14 08:46:58;;;;;;;7.80;6.93;;;16.40;52.50;15.40;102243.00;;;;5019798;28;20038;-67
2021/12/14 08:49:45;;;;;;;7.32;6.50;;;16.40;52.60;15.40;102252.00;;;;5018281;28;20038;-67
2021/12/14 08:52:31;;;;;;;9.18;7.03;;;16.40;52.50;15.40;102256.00;;;;5017355;28;20424;-67
2021/12/14 08:55:18;;;;;;;8.55;7.28;;;16.40;52.60;15.40;102255.00;;;;5021378;28;20060;-67
2021/12/14 08:58:05;;;;;;;8.85;7.40;;;16.40;52.60;15.40;102260.00;;;;5011136;28;20156;-67
2021/12/14 09:00:58;;;;;;;9.75;7.25;;;16.30;52.60;15.40;102255.00;;;;5030750;28;20041;-67
2021/12/14 09:03:56;;;;;;;7.70;6.20;;;16.30;52.60;15.40;102247.00;;;;5016515;28;20526;-67
2021/12/14 09:06:44;;;;;;;;;;;16.30;52.60;15.40;102261.00;;;;5020053;28;20128;-68
2021/12/14 09:09:30;;;;;;;8.27;7.35;;;16.40;52.70;15.40;102250.00;;;;5016087;28;19913;-67
2021/12/14 09:12:24;;;;;;;8.50;7.18;;;16.40;52.60;15.40;102254.00;;;;5021192;28;20033;-67
2021/12/14 09:15:20;;;;;;;9.13;7.47;;;16.30;52.60;15.40;102257.00;;;;5021372;28;20090;-67
2021/12/14 09:18:06;;;;;;;8.90;7.25;;;16.30;52.60;15.40;102261.00;;;;5018532;28;20048;-67
2021/12/14 09:21:02;;;;;;;9.40;8.00;;;16.30;52.60;15.40;102254.00;;;;5005653;28;20043;-67
2021/12/14 09:23:53;;;;;;;8.48;7.13;;;16.30;53.20;15.40;102253.00;;;;5011546;28;20115;-67
2021/12/14 09:26:41;;;;;;;8.55;7.53;;;16.30;52.70;15.40;102261.00;;;;5022215;28;20065;-67
2021/12/14 09:29:28;;;;;;;7.53;6.72;;;16.30;52.70;15.40;102256.00;;;;5025949;28;20144;-67
2021/12/14 09:32:21;;;;;;;9.23;8.07;;;16.30;52.70;15.40;102259.00;;;;5037726;28;20038;-67
2021/12/14 09:35:16;;;;;;;10.52;7.80;;;16.30;52.70;15.40;102252.00;;;;5022326;28;20057;-66
2021/12/14 09:38:05;;;;;;;9.45;8.05;;;16.30;52.80;15.40;102259.00;;;;5017668;28;20061;-67
2021/12/14 09:40:53;;;;;;;10.55;8.10;;;16.30;52.80;15.40;102260.00;;;;5016179;28;20046;-67
2021/12/14 09:43:40;;;;;;;9.82;7.63;;;16.30;52.80;15.40;102279.00;;;;5023771;28;20069;-67
2021/12/14 09:46:27;;;;;;;9.32;7.93;;;16.30;52.80;15.40;102274.00;;;;5015818;28;20507;-67
2021/12/14 09:49:16;;;;;;;9.00;7.65;;;16.30;52.80;15.40;102273.00;;;;5014415;28;20045;-67
2021/12/14 09:52:28;;;;;;;10.50;8.07;;;16.30;52.80;15.40;102265.00;;;;5022692;28;20045;-67
2021/12/14 09:55:19;;;;;;;8.88;7.78;;;16.30;52.80;15.40;102256.00;;;;5018195;28;20507;-67
2021/12/14 09:58:14;;;;;;;10.18;8.10;;;16.30;52.90;15.40;102249.00;;;;5022063;28;20038;-67
2021/12/14 10:01:39;;;;;;;10.68;8.18;;;16.30;52.90;15.40;102245.00;;;;5015931;28;20045;-67
2021/12/14 10:04:39;;;;;;;9.90;8.70;;;16.30;52.90;15.40;102242.00;;;;5017047;28;20029;-67
2021/12/14 10:07:25;;;;;;;15.00;9.65;;;16.30;52.90;15.40;102235.00;;;;5019380;28;20542;-67
2021/12/14 10:10:14;;;;;;;11.43;8.98;;;16.30;52.90;15.40;102240.00;;;;5014227;28;20168;-67
2021/12/14 10:13:00;;;;;;;12.57;9.38;;;16.30;52.90;15.40;102233.00;;;;5015966;28;20041;-67
2021/12/14 10:15:51;;;;;;;11.00;8.70;;;16.30;52.90;15.40;102229.00;;;;5010678;28;20056;-67
2021/12/14 10:18:50;;;;;;;10.50;8.40;;;16.30;52.90;15.40;102233.00;;;;5019811;28;20033;-67
2021/12/14 10:21:49;;;;;;;12.60;9.38;;;16.30;53.00;15.40;102245.00;;;;5018904;28;20052;-67
2021/12/14 10:24:36;;;;;;;11.32;9.30;;;16.30;53.00;15.40;102250.00;;;;5009699;28;20069;-67
2021/12/14 10:27:24;;;;;;;12.30;9.25;;;16.30;53.00;15.40;102242.00;;;;5015665;28;20095;-67
2021/12/14 10:30:18;;;;;;;12.13;9.68;;;16.30;53.00;15.40;102239.00;;;;5017043;28;20048;-67
2021/12/14 10:33:05;;;;;;;10.93;8.77;;;16.30;53.00;15.40;102240.00;;;;5024527;28;20037;-67
2021/12/14 10:35:57;;;;;;;12.30;9.25;;;16.30;53.00;15.40;102239.00;;;;5020831;28;20049;-67
2021/12/14 10:39:04;;;;;;;10.27;8.50;;;16.30;53.10;15.40;102245.00;;;;5014875;28;20046;-67
2021/12/14 10:45:02;;;;;;;11.82;9.23;;;16.30;53.10;15.40;102225.00;;;;5001716;28;20034;-67
2021/12/14 10:47:48;;;;;;;11.88;9.32;;;16.30;53.10;15.40;102235.00;;;;5012895;28;20037;-67
2021/12/14 10:50:36;;;;;;;11.75;9.82;;;16.30;53.10;15.40;102230.00;;;;5017594;28;20350;-68
2021/12/14 10:53:22;;;;;;;12.30;9.60;;;16.30;53.10;15.40;102228.00;;;;5012269;28;20549;-67
2021/12/14 10:56:16;;;;;;;13.20;9.68;;;16.30;53.20;15.40;102230.00;;;;5017413;28;20073;-67
2021/12/14 10:59:06;;;;;;;12.52;9.82;;;16.30;53.10;15.40;102241.00;;;;5024418;28;20033;-67
2021/12/14 11:01:53;;;;;;;14.10;10.35;;;16.30;53.10;15.40;102238.00;;;;5021653;28;20042;-68
2021/12/14 11:04:56;;;;;;;12.93;10.23;;;16.30;53.10;15.40;102240.00;;;;5007970;28;20068;-67
2021/12/14 11:07:45;;;;;;;13.48;10.07;;;16.30;53.10;15.40;102228.00;;;;5009918;28;20056;-67
2021/12/14 11:10:37;;;;;;;12.57;9.90;;;16.40;53.20;15.40;102226.00;;;;5036449;28;20475;-67
2021/12/14 11:13:23;;;;;;;14.20;10.15;;;16.40;53.20;15.40;102225.00;;;;5017518;28;20050;-67
2021/12/14 11:16:17;;;;;;;13.55;10.10;;;16.30;53.10;15.40;102232.00;;;;5016615;28;20048;-67
2021/12/14 11:19:04;;;;;;;14.40;10.52;;;16.40;53.20;15.40;102240.00;;;;5026889;28;20107;-67
2021/12/14 11:21:51;;;;;;;13.73;9.90;;;16.30;53.10;15.40;102235.00;;;;5020954;28;20043;-67
2021/12/14 11:24:37;;;;;;;14.43;10.80;;;16.30;53.10;15.40;102234.00;;;;5009326;28;20124;-67
2021/12/14 11:27:28;;;;;;;13.18;10.65;;;16.40;53.20;15.40;102231.00;;;;5014935;28;20053;-67
2021/12/14 11:30:23;;;;;;;13.88;10.23;;;16.40;53.20;15.40;102230.00;;;;5020144;28;20476;-67
2021/12/14 11:33:15;;;;;;;14.75;11.25;;;16.30;53.20;15.40;102224.00;;;;5008329;28;20111;-67
2021/12/14 11:36:28;;;;;;;14.13;10.48;;;16.40;53.20;15.40;102219.00;;;;5015688;28;20064;-67
2021/12/14 11:39:24;;;;;;;14.15;10.25;;;16.30;53.20;15.40;102225.00;;;;5019915;28;20088;-67
2021/12/14 11:42:19;;;;;;;15.75;11.20;;;16.40;53.30;15.40;102224.00;;;;5016380;28;20045;-67
2021/12/14 11:45:16;;;;;;;14.40;10.60;;;16.30;53.20;15.40;102217.00;;;;5014408;28;20042;-67
2021/12/14 11:48:03;;;;;;;15.57;12.02;;;16.40;53.30;15.40;102225.00;;;;5002635;28;20455;-67
2021/12/14 11:50:50;;;;;;;15.07;11.00;;;16.40;53.30;15.40;102223.00;;;;5025808;28;20037;-67
2021/12/14 11:53:36;;;;;;;14.77;11.23;;;16.40;54.00;15.40;102219.00;;;;5016380;28;20055;-67
2021/12/14 11:56:25;;;;;;;15.40;11.65;;;16.40;53.30;15.40;102205.00;;;;5012105;28;20095;-67
2021/12/14 11:59:11;;;;;;;16.17;12.43;;;16.40;53.30;15.40;102215.00;;;;5025270;28;20045;-67
2021/12/14 12:01:57;;;;;;;19.55;12.02;;;16.40;53.30;15.40;102214.00;;;;5016946;28;20045;-67
2021/12/14 12:04:47;;;;;;;15.68;11.80;;;16.40;53.30;15.40;102216.00;;;;5020555;28;20081;-67
2021/12/14 12:10:44;;;;;;;15.18;11.75;;;16.40;53.30;15.40;102210.00;;;;5012466;28;20372;-67
2021/12/14 12:13:38;;;;;;;17.17;12.38;;;16.40;53.30;15.40;102204.00;;;;5016762;28;20245;-67
2021/12/14 12:16:27;;;;;;;18.42;12.15;;;16.40;53.40;15.40;102213.00;;;;5024691;28;20041;-67
2021/12/14 12:19:25;;;;;;;17.13;12.43;;;16.40;53.40;15.40;102207.00;;;;4998952;28;20556;-67
2021/12/14 12:22:15;;;;;;;17.02;12.05;;;16.40;53.40;15.40;102207.00;;;;5020078;28;20121;-67
2021/12/14 12:25:02;;;;;;;17.10;12.82;;;16.40;53.40;15.40;102211.00;;;;5011158;28;20045;-67
2021/12/14 12:28:06;;;;;;;18.15;12.98;;;16.40;53.40;15.40;102208.00;;;;5020806;28;20041;-67
2021/12/14 12:31:25;;;;;;;18.98;13.57;;;16.40;53.40;15.40;102208.00;;;;5012494;28;20080;-67
2021/12/14 12:34:11;;;;;;;18.95;13.52;;;16.40;53.40;15.40;102217.00;;;;5009928;28;20051;-67
2021/12/14 12:36:57;;;;;;;17.25;12.98;;;16.40;53.40;15.40;102220.00;;;;5012660;28;20567;-68
2021/12/14 12:39:52;;;;;;;18.05;12.93;;;16.40;53.40;15.40;102219.00;;;;5017562;28;20120;-67
2021/12/14 12:42:39;;;;;;;18.02;13.00;;;16.40;53.40;15.40;102219.00;;;;5019141;28;20046;-67
2021/12/14 12:45:33;;;;;;;19.90;14.18;;;16.40;53.40;15.40;102217.00;;;;5019243;28;20037;-67
2021/12/14 12:48:39;;;;;;;18.52;13.38;;;16.40;53.40;15.40;102223.00;;;;5019085;28;20050;-67
2021/12/14 12:51:49;;;;;;;21.77;13.63;;;16.40;53.40;15.40;102216.00;;;;5016973;28;21968;-67
2021/12/14 12:54:45;;;;;;;18.58;13.48;;;16.40;53.50;15.40;102224.00;;;;5017795;28;20403;-67
2021/12/14 12:58:10;;;;;;;18.88;13.07;;;16.40;53.40;15.40;102219.00;;;;5020277;28;20479;-67
2021/12/14 13:00:59;;;;;;;18.50;13.77;;;16.40;53.50;15.50;102227.00;;;;5016230;28;20041;-67
2021/12/14 13:03:45;;;;;;;17.98;13.00;;;16.40;53.40;15.50;102218.00;;;;5017471;28;20471;-67
2021/12/14 13:06:32;;;;;;;18.40;13.57;;;16.40;53.40;15.50;102212.00;;;;5021059;28;20042;-67
2021/12/14 13:09:18;;;;;;;18.70;12.60;;;16.40;53.50;15.50;102215.00;;;;5019353;28;20100;-67
2021/12/14 13:12:05;;;;;;;22.45;15.02;;;16.40;53.40;15.50;102215.00;;;;5019827;28;20041;-67
2021/12/14 13:14:51;;;;;;;18.48;12.73;;;16.40;53.40;15.50;102217.00;;;;5020866;28;20095;-67